sensor_id;sensor_type;location;lat;lon;timestamp;pressure;altitude;pressure_sealevel;temperature;humidity
31239;BME280;17871;31.584;74.450;2022-07-22T00:02:30;97703.81;;;28.70;100.00
31239;BME280;17871;31.584;74.450;2022-07-22T00:05:00;97698.06;;;28.76;100.00
31239;BME280;17871;31.584;74.450;2022-07-22T00:07:30;97706.91;;;28.75;100.00
31239;BME280;17871;31.584;74.450;2022-07-22T00:09:59;97707.38;;;28.69;100.00
31239;BME280;17871;31.584;74.450;2022-07-22T00:12:28;97707.66;;;28.77;100.00
31239;BME280;17871;31.584;74.450;2022-07-22T00:14:57;97717.19;;;28.78;100.00
31239;BME280;17871;31.584;74.450;2022-07-22T00:17:26;97727.25;;;28.73;100.00
31239;BME280;17871;31.584;74.450;2022-07-22T00:19:55;97726.94;;;28.65;100.00
31239;BME280;17871;31.584;74.450;2022-07-22T00:22:24;97733.69;;;28.69;100.00
31239;BME280;17871;31.584;74.450;2022-07-22T00:24:53;97735.81;;;28.64;100.00
31239;BME280;17871;31.584;74.450;2022-07-22T00:27:23;97745.34;;;28.65;100.00
31239;BME280;17871;31.584;74.450;2022-07-22T00:29:51;97734.38;;;28.60;100.00
31239;BME280;17871;31.584;74.450;2022-07-22T00:32:20;97738.25;;;28.67;100.00
31239;BME280;17871;31.584;74.450;2022-07-22T00:34:49;97740.03;;;28.67;100.00
31239;BME280;17871;31.584;74.450;2022-07-22T00:37:19;97738.94;;;28.69;100.00
31239;BME280;17871;31.584;74.450;2022-07-22T00:39:48;97738.44;;;28.64;100.00
31239;BME280;17871;31.584;74.450;2022-07-22T00:42:17;97740.09;;;28.65;100.00
31239;BME280;17871;31.584;74.450;2022-07-22T00:44:50;97749.31;;;28.60;100.00
31239;BME280;17871;31.584;74.450;2022-07-22T00:47:19;97757.78;;;28.63;100.00
31239;BME280;17871;31.584;74.450;2022-07-22T00:49:48;97759.72;;;28.61;100.00
31239;BME280;17871;31.584;74.450;2022-07-22T00:52:19;97763.56;;;28.68;100.00
31239;BME280;17871;31.584;74.450;2022-07-22T00:54:49;97769.50;;;28.59;100.00
31239;BME280;17871;31.584;74.450;2022-07-22T00:57:19;97770.09;;;28.63;100.00
31239;BME280;17871;31.584;74.450;2022-07-22T00:59:48;97769.03;;;28.54;100.00
31239;BME280;17871;31.584;74.450;2022-07-22T01:02:17;97769.63;;;28.58;100.00
31239;BME280;17871;31.584;74.450;2022-07-22T01:04:46;97770.94;;;28.63;100.00
31239;BME280;17871;31.584;74.450;2022-07-22T01:07:16;97774.53;;;28.62;100.00
31239;BME280;17871;31.584;74.450;2022-07-22T01:09:47;97769.50;;;28.59;100.00
31239;BME280;17871;31.584;74.450;2022-07-22T01:12:16;97773.69;;;28.62;100.00
31239;BME280;17871;31.584;74.450;2022-07-22T01:14:45;97786.97;;;28.60;100.00
31239;BME280;17871;31.584;74.450;2022-07-22T01:17:14;97790.06;;;28.65;100.00
31239;BME280;17871;31.584;74.450;2022-07-22T01:19:43;97796.94;;;28.68;100.00
31239;BME280;17871;31.584;74.450;2022-07-22T01:22:13;97791.13;;;28.63;100.00
31239;BME280;17871;31.584;74.450;2022-07-22T01:24:42;97796.50;;;28.50;100.00
31239;BME280;17871;31.584;74.450;2022-07-22T01:27:11;97807.72;;;28.52;100.00
31239;BME280;17871;31.584;74.450;2022-07-22T01:29:40;97800.06;;;28.49;100.00
31239;BME280;17871;31.584;74.450;2022-07-22T01:32:09;97794.56;;;28.52;100.00
31239;BME280;17871;31.584;74.450;2022-07-22T01:34:39;97791.00;;;28.53;100.00
31239;BME280;17871;31.584;74.450;2022-07-22T01:37:08;97789.78;;;28.46;100.00
31239;BME280;17871;31.584;74.450;2022-07-22T01:39:37;97791.94;;;28.52;100.00
31239;BME280;17871;31.584;74.450;2022-07-22T01:42:06;97784.91;;;28.53;100.00
31239;BME280;17871;31.584;74.450;2022-07-22T01:44:35;97784.28;;;28.49;100.00
31239;BME280;17871;31.584;74.450;2022-07-22T01:47:05;97784.28;;;28.49;100.00
31239;BME280;17871;31.584;74.450;2022-07-22T01:49:34;97778.09;;;28.50;100.00
31239;BME280;17871;31.584;74.450;2022-07-22T01:52:04;97784.06;;;28.52;100.00
31239;BME280;17871;31.584;74.450;2022-07-22T01:54:34;97780.72;;;28.50;100.00
31239;BME280;17871;31.584;74.450;2022-07-22T01:57:04;97790.75;;;28.45;100.00
31239;BME280;17871;31.584;74.450;2022-07-22T01:59:41;97788.50;;;28.52;100.00
31239;BME280;17871;31.584;74.450;2022-07-22T02:02:10;97795.56;;;28.62;100.00
31239;BME280;17871;31.584;74.450;2022-07-22T02:04:39;97799.44;;;28.69;100.00
31239;BME280;17871;31.584;74.450;2022-07-22T02:07:10;97804.66;;;28.58;100.00
31239;BME280;17871;31.584;74.450;2022-07-22T02:09:39;97803.34;;;28.64;100.00
31239;BME280;17871;31.584;74.450;2022-07-22T02:12:08;97817.50;;;28.74;100.00
31239;BME280;17871;31.584;74.450;2022-07-22T02:14:43;97816.44;;;28.76;100.00
31239;BME280;17871;31.584;74.450;2022-07-22T02:17:13;97819.56;;;28.81;100.00
31239;BME280;17871;31.584;74.450;2022-07-22T02:19:43;97822.19;;;28.81;100.00
31239;BME280;17871;31.584;74.450;2022-07-22T02:22:12;97823.63;;;28.85;100.00
31239;BME280;17871;31.584;74.450;2022-07-22T02:24:41;97823.84;;;28.82;100.00
31239;BME280;17871;31.584;74.450;2022-07-22T02:27:10;97837.97;;;28.81;100.00
31239;BME280;17871;31.584;74.450;2022-07-22T02:29:41;97837.00;;;28.82;100.00
31239;BME280;17871;31.584;74.450;2022-07-22T02:32:10;97837.97;;;28.81;100.00
31239;BME280;17871;31.584;74.450;2022-07-22T02:34:39;97842.53;;;28.91;100.00
31239;BME280;17871;31.584;74.450;2022-07-22T02:37:08;97838.25;;;29.01;100.00
31239;BME280;17871;31.584;74.450;2022-07-22T02:39:38;97843.28;;;29.04;100.00
31239;BME280;17871;31.584;74.450;2022-07-22T02:42:07;97848.69;;;29.13;100.00
31239;BME280;17871;31.584;74.450;2022-07-22T02:44:37;97846.53;;;29.18;100.00
31239;BME280;17871;31.584;74.450;2022-07-22T02:47:06;97848.38;;;29.29;100.00
31239;BME280;17871;31.584;74.450;2022-07-22T02:49:36;97850.03;;;29.41;100.00
31239;BME280;17871;31.584;74.450;2022-07-22T02:52:06;97844.06;;;29.39;100.00
31239;BME280;17871;31.584;74.450;2022-07-22T02:54:35;97843.25;;;29.50;100.00
31239;BME280;17871;31.584;74.450;2022-07-22T02:57:06;97842.84;;;29.54;100.00
31239;BME280;17871;31.584;74.450;2022-07-22T02:59:36;97843.22;;;29.72;100.00
31239;BME280;17871;31.584;74.450;2022-07-22T03:02:05;97838.53;;;29.64;100.00
31239;BME280;17871;31.584;74.450;2022-07-22T03:04:35;97835.91;;;29.75;100.00
31239;BME280;17871;31.584;74.450;2022-07-22T03:07:06;97840.47;;;29.84;100.00
31239;BME280;17871;31.584;74.450;2022-07-22T03:09:35;97844.78;;;29.97;100.00
31239;BME280;17871;31.584;74.450;2022-07-22T03:12:05;97843.78;;;30.09;100.00
31239;BME280;17871;31.584;74.450;2022-07-22T03:14:34;97841.59;;;30.25;100.00
31239;BME280;17871;31.584;74.450;2022-07-22T03:17:04;97848.16;;;30.30;100.00
31239;BME280;17871;31.584;74.450;2022-07-22T03:19:33;97842.28;;;30.27;100.00
31239;BME280;17871;31.584;74.450;2022-07-22T03:22:02;97836.75;;;30.30;100.00
31239;BME280;17871;31.584;74.450;2022-07-22T03:24:32;97842.03;;;30.41;100.00
31239;BME280;17871;31.584;74.450;2022-07-22T03:27:02;97843.94;;;30.39;100.00
31239;BME280;17871;31.584;74.450;2022-07-22T03:29:31;97834.59;;;30.46;100.00
31239;BME280;17871;31.584;74.450;2022-07-22T03:32:01;97832.84;;;30.56;100.00
31239;BME280;17871;31.584;74.450;2022-07-22T03:34:44;97839.88;;;30.67;100.00
31239;BME280;17871;31.584;74.450;2022-07-22T03:37:14;97831.06;;;30.77;100.00
31239;BME280;17871;31.584;74.450;2022-07-22T03:39:44;97833.91;;;30.85;100.00
31239;BME280;17871;31.584;74.450;2022-07-22T03:42:14;97842.16;;;30.92;100.00
31239;BME280;17871;31.584;74.450;2022-07-22T03:44:47;97844.16;;;31.00;100.00
31239;BME280;17871;31.584;74.450;2022-07-22T03:47:21;97844.53;;;31.16;100.00
31239;BME280;17871;31.584;74.450;2022-07-22T03:49:51;97844.31;;;30.98;100.00
31239;BME280;17871;31.584;74.450;2022-07-22T03:52:26;97851.38;;;30.98;100.00
31239;BME280;17871;31.584;74.450;2022-07-22T03:54:58;97845.50;;;30.94;100.00
31239;BME280;17871;31.584;74.450;2022-07-22T03:57:28;97848.66;;;30.88;100.00
31239;BME280;17871;31.584;74.450;2022-07-22T04:00:04;97857.63;;;30.97;100.00
31239;BME280;17871;31.584;74.450;2022-07-22T04:02:41;97847.28;;;30.94;100.00
31239;BME280;17871;31.584;74.450;2022-07-22T04:05:25;97853.03;;;30.78;100.00
31239;BME280;17871;31.584;74.450;2022-07-22T04:07:54;97859.22;;;30.88;100.00
31239;BME280;17871;31.584;74.450;2022-07-22T04:10:24;97852.44;;;30.95;100.00
31239;BME280;17871;31.584;74.450;2022-07-22T04:12:53;97856.41;;;31.01;100.00
31239;BME280;17871;31.584;74.450;2022-07-22T04:15:32;97857.34;;;31.00;100.00
31239;BME280;17871;31.584;74.450;2022-07-22T04:18:01;97859.34;;;31.07;100.00
31239;BME280;17871;31.584;74.450;2022-07-22T04:20:31;97855.28;;;31.24;100.00
31239;BME280;17871;31.584;74.450;2022-07-22T04:23:39;97850.91;;;31.34;100.00
31239;BME280;17871;31.584;74.450;2022-07-22T04:26:29;97853.00;;;31.40;100.00
31239;BME280;17871;31.584;74.450;2022-07-22T04:28:59;97847.03;;;31.38;100.00
31239;BME280;17871;31.584;74.450;2022-07-22T04:31:29;97850.94;;;31.44;100.00
31239;BME280;17871;31.584;74.450;2022-07-22T04:34:07;97846.91;;;31.70;100.00
31239;BME280;17871;31.584;74.450;2022-07-22T04:36:36;97851.44;;;31.98;100.00
31239;BME280;17871;31.584;74.450;2022-07-22T04:39:05;97844.53;;;32.07;100.00
31239;BME280;17871;31.584;74.450;2022-07-22T04:41:37;97848.66;;;32.00;100.00
31239;BME280;17871;31.584;74.450;2022-07-22T04:44:06;97851.03;;;32.03;100.00
31239;BME280;17871;31.584;74.450;2022-07-22T04:46:36;97851.53;;;32.27;100.00
31239;BME280;17871;31.584;74.450;2022-07-22T04:49:05;97844.69;;;32.34;100.00
31239;BME280;17871;31.584;74.450;2022-07-22T04:51:34;97839.28;;;32.45;100.00
31239;BME280;17871;31.584;74.450;2022-07-22T04:54:06;97846.94;;;32.48;100.00
31239;BME280;17871;31.584;74.450;2022-07-22T04:56:40;97843.72;;;32.54;100.00
31239;BME280;17871;31.584;74.450;2022-07-22T04:59:11;97840.28;;;32.73;100.00
31239;BME280;17871;31.584;74.450;2022-07-22T05:01:41;97845.03;;;32.69;100.00
31239;BME280;17871;31.584;74.450;2022-07-22T05:04:10;97848.06;;;32.74;100.00
31239;BME280;17871;31.584;74.450;2022-07-22T05:06:41;97848.78;;;32.86;100.00
31239;BME280;17871;31.584;74.450;2022-07-22T05:09:11;97852.38;;;32.85;100.00
31239;BME280;17871;31.584;74.450;2022-07-22T05:11:40;97846.25;;;32.75;100.00
31239;BME280;17871;31.584;74.450;2022-07-22T05:14:09;97857.28;;;32.80;100.00
31239;BME280;17871;31.584;74.450;2022-07-22T05:16:38;97852.00;;;32.80;100.00
31239;BME280;17871;31.584;74.450;2022-07-22T05:19:09;97856.28;;;32.90;100.00
31239;BME280;17871;31.584;74.450;2022-07-22T05:21:39;97858.50;;;32.95;100.00
31239;BME280;17871;31.584;74.450;2022-07-22T05:24:09;97861.97;;;33.15;100.00
31239;BME280;17871;31.584;74.450;2022-07-22T05:26:39;97862.94;;;33.23;100.00
31239;BME280;17871;31.584;74.450;2022-07-22T05:29:08;97870.03;;;33.32;100.00
31239;BME280;17871;31.584;74.450;2022-07-22T05:31:37;97863.16;;;33.39;100.00
31239;BME280;17871;31.584;74.450;2022-07-22T05:34:07;97868.47;;;33.39;100.00
31239;BME280;17871;31.584;74.450;2022-07-22T05:36:43;97859.84;;;33.28;100.00
31239;BME280;17871;31.584;74.450;2022-07-22T05:39:17;97863.44;;;33.36;100.00
31239;BME280;17871;31.584;74.450;2022-07-22T05:41:49;97860.19;;;33.62;100.00
31239;BME280;17871;31.584;74.450;2022-07-22T05:44:23;97866.44;;;33.70;100.00
31239;BME280;17871;31.584;74.450;2022-07-22T05:46:54;97859.06;;;33.64;100.00
31239;BME280;17871;31.584;74.450;2022-07-22T05:49:24;97866.50;;;33.88;100.00
31239;BME280;17871;31.584;74.450;2022-07-22T05:52:02;97858.88;;;33.75;100.00
31239;BME280;17871;31.584;74.450;2022-07-22T05:54:31;97857.25;;;33.65;100.00
31239;BME280;17871;31.584;74.450;2022-07-22T05:57:01;97857.22;;;33.74;100.00
31239;BME280;17871;31.584;74.450;2022-07-22T05:59:29;97849.88;;;33.86;100.00
31239;BME280;17871;31.584;74.450;2022-07-22T06:01:59;97848.53;;;34.00;100.00
31239;BME280;17871;31.584;74.450;2022-07-22T06:04:48;97833.31;;;34.11;100.00
31239;BME280;17871;31.584;74.450;2022-07-22T06:07:19;97833.47;;;34.27;100.00
31239;BME280;17871;31.584;74.450;2022-07-22T06:09:54;97832.13;;;34.41;100.00
31239;BME280;17871;31.584;74.450;2022-07-22T06:12:24;97830.34;;;34.50;100.00
31239;BME280;17871;31.584;74.450;2022-07-22T06:14:53;97823.59;;;34.55;100.00
31239;BME280;17871;31.584;74.450;2022-07-22T06:17:25;97826.50;;;34.62;100.00
31239;BME280;17871;31.584;74.450;2022-07-22T06:19:54;97824.81;;;34.78;100.00
31239;BME280;17871;31.584;74.450;2022-07-22T06:22:23;97819.97;;;34.74;100.00
31239;BME280;17871;31.584;74.450;2022-07-22T06:24:52;97822.59;;;34.91;100.00
31239;BME280;17871;31.584;74.450;2022-07-22T06:27:22;97816.56;;;35.07;100.00
31239;BME280;17871;31.584;74.450;2022-07-22T06:29:53;97819.16;;;35.17;100.00
31239;BME280;17871;31.584;74.450;2022-07-22T06:32:23;97818.84;;;35.20;100.00
31239;BME280;17871;31.584;74.450;2022-07-22T06:34:53;97819.16;;;35.17;99.40
31239;BME280;17871;31.584;74.450;2022-07-22T06:37:22;97816.84;;;35.04;100.00
31239;BME280;17871;31.584;74.450;2022-07-22T06:40:12;97821.19;;;35.23;100.00
31239;BME280;17871;31.584;74.450;2022-07-22T06:42:52;97821.91;;;35.33;100.00
31239;BME280;17871;31.584;74.450;2022-07-22T06:45:42;97806.47;;;35.36;99.92
31239;BME280;17871;31.584;74.450;2022-07-22T06:48:19;97812.59;;;35.63;100.00
31239;BME280;17871;31.584;74.450;2022-07-22T06:50:49;97808.00;;;35.47;96.15
31239;BME280;17871;31.584;74.450;2022-07-22T06:53:20;97807.69;;;35.50;97.51
31239;BME280;17871;31.584;74.450;2022-07-22T06:55:50;97810.38;;;35.58;98.18
31239;BME280;17871;31.584;74.450;2022-07-22T06:58:19;97810.31;;;35.76;97.50
31239;BME280;17871;31.584;74.450;2022-07-22T07:00:49;97811.34;;;35.49;98.95
31239;BME280;17871;31.584;74.450;2022-07-22T07:03:35;97811.19;;;35.17;96.81
31239;BME280;17871;31.584;74.450;2022-07-22T07:06:10;97806.00;;;35.15;99.08
31239;BME280;17871;31.584;74.450;2022-07-22T07:09:03;97800.38;;;35.52;98.13
31239;BME280;17871;31.584;74.450;2022-07-22T07:11:34;97800.50;;;35.42;99.04
31239;BME280;17871;31.584;74.450;2022-07-22T07:14:13;97803.81;;;35.36;99.17
31239;BME280;17871;31.584;74.450;2022-07-22T07:16:42;97793.34;;;35.77;99.72
31239;BME280;17871;31.584;74.450;2022-07-22T07:19:12;97797.03;;;35.76;98.36
31239;BME280;17871;31.584;74.450;2022-07-22T07:21:42;97798.72;;;35.51;97.92
31239;BME280;17871;31.584;74.450;2022-07-22T07:24:17;97790.84;;;35.33;97.60
31239;BME280;17871;31.584;74.450;2022-07-22T07:26:46;97788.09;;;35.51;98.82
31239;BME280;17871;31.584;74.450;2022-07-22T07:29:17;97784.91;;;35.81;97.76
31239;BME280;17871;31.584;74.450;2022-07-22T07:31:52;97771.63;;;35.89;94.83
31239;BME280;17871;31.584;74.450;2022-07-22T07:34:21;97771.63;;;35.89;95.75
31239;BME280;17871;31.584;74.450;2022-07-22T07:36:51;97769.41;;;35.77;98.17
31239;BME280;17871;31.584;74.450;2022-07-22T07:39:20;97768.56;;;35.68;97.60
31239;BME280;17871;31.584;74.450;2022-07-22T07:41:49;97759.63;;;35.77;98.02
31239;BME280;17871;31.584;74.450;2022-07-22T07:44:24;97753.66;;;35.91;98.47
31239;BME280;17871;31.584;74.450;2022-07-22T07:46:53;97751.59;;;35.61;95.06
31239;BME280;17871;31.584;74.450;2022-07-22T07:49:22;97742.50;;;35.80;96.20
31239;BME280;17871;31.584;74.450;2022-07-22T07:51:52;97739.72;;;35.98;96.30
31239;BME280;17871;31.584;74.450;2022-07-22T07:54:22;97743.38;;;36.05;94.69
31239;BME280;17871;31.584;74.450;2022-07-22T07:56:53;97735.75;;;36.10;93.96
31239;BME280;17871;31.584;74.450;2022-07-22T07:59:23;97727.28;;;36.14;95.48
31239;BME280;17871;31.584;74.450;2022-07-22T08:01:56;97725.75;;;36.04;92.78
31239;BME280;17871;31.584;74.450;2022-07-22T08:04:28;97724.16;;;36.19;93.37
31239;BME280;17871;31.584;74.450;2022-07-22T08:07:08;97718.72;;;35.86;93.18
31239;BME280;17871;31.584;74.450;2022-07-22T08:09:40;97715.66;;;36.15;93.35
31239;BME280;17871;31.584;74.450;2022-07-22T08:12:38;97713.50;;;36.19;92.84
31239;BME280;17871;31.584;74.450;2022-07-22T08:15:28;97705.66;;;36.41;94.90
31239;BME280;17871;31.584;74.450;2022-07-22T08:18:05;97697.84;;;36.56;93.35
31239;BME280;17871;31.584;74.450;2022-07-22T08:20:34;97688.53;;;36.68;93.61
31239;BME280;17871;31.584;74.450;2022-07-22T08:23:04;97696.81;;;36.49;92.23
31239;BME280;17871;31.584;74.450;2022-07-22T08:25:33;97684.34;;;36.50;93.43
31239;BME280;17871;31.584;74.450;2022-07-22T08:28:03;97690.19;;;36.37;91.17
31239;BME280;17871;31.584;74.450;2022-07-22T08:30:33;97682.22;;;36.45;92.37
31239;BME280;17871;31.584;74.450;2022-07-22T08:33:02;97692.19;;;36.51;90.52
31239;BME280;17871;31.584;74.450;2022-07-22T08:35:32;97682.88;;;36.39;92.18
31239;BME280;17871;31.584;74.450;2022-07-22T08:38:01;97673.38;;;35.88;93.82
31239;BME280;17871;31.584;74.450;2022-07-22T08:40:30;97670.66;;;35.64;93.91
31239;BME280;17871;31.584;74.450;2022-07-22T08:43:02;97669.59;;;36.15;93.25
31239;BME280;17871;31.584;74.450;2022-07-22T08:45:33;97665.41;;;36.20;93.24
31239;BME280;17871;31.584;74.450;2022-07-22T08:48:03;97666.91;;;36.31;93.41
31239;BME280;17871;31.584;74.450;2022-07-22T08:51:10;97663.91;;;36.34;92.43
31239;BME280;17871;31.584;74.450;2022-07-22T08:53:50;97656.63;;;36.12;91.76
31239;BME280;17871;31.584;74.450;2022-07-22T08:56:20;97650.78;;;36.24;91.72
31239;BME280;17871;31.584;74.450;2022-07-22T08:58:50;97655.28;;;36.32;88.81
31239;BME280;17871;31.584;74.450;2022-07-22T09:01:19;97654.25;;;36.41;89.29
31239;BME280;17871;31.584;74.450;2022-07-22T09:03:52;97636.59;;;36.40;91.60
31239;BME280;17871;31.584;74.450;2022-07-22T09:06:30;97640.94;;;36.57;90.45
31239;BME280;17871;31.584;74.450;2022-07-22T09:09:06;97631.91;;;36.66;91.36
31239;BME280;17871;31.584;74.450;2022-07-22T09:12:12;97633.94;;;36.64;88.56
31239;BME280;17871;31.584;74.450;2022-07-22T09:15:08;97625.94;;;36.64;89.01
31239;BME280;17871;31.584;74.450;2022-07-22T09:17:53;97626.72;;;36.73;91.39
31239;BME280;17871;31.584;74.450;2022-07-22T09:20:58;97626.28;;;36.61;88.32
31239;BME280;17871;31.584;74.450;2022-07-22T09:23:47;97614.09;;;36.67;88.74
31239;BME280;17871;31.584;74.450;2022-07-22T09:26:37;97614.25;;;36.73;89.87
31239;BME280;17871;31.584;74.450;2022-07-22T09:29:26;97606.66;;;36.54;90.72
31239;BME280;17871;31.584;74.450;2022-07-22T09:32:24;97603.63;;;36.49;87.96
31239;BME280;17871;31.584;74.450;2022-07-22T09:35:02;97603.78;;;36.72;89.67
31239;BME280;17871;31.584;74.450;2022-07-22T09:38:01;97597.97;;;36.68;88.49
31239;BME280;17871;31.584;74.450;2022-07-22T09:40:36;97587.19;;;36.46;88.25
31239;BME280;17871;31.584;74.450;2022-07-22T09:43:08;97591.81;;;36.68;90.58
31239;BME280;17871;31.584;74.450;2022-07-22T09:45:49;97584.94;;;36.73;89.89
31239;BME280;17871;31.584;74.450;2022-07-22T09:48:22;97578.00;;;36.64;89.81
31239;BME280;17871;31.584;74.450;2022-07-22T09:51:14;97576.69;;;36.60;87.75
31239;BME280;17871;31.584;74.450;2022-07-22T09:54:03;97574.34;;;36.57;89.34
31239;BME280;17871;31.584;74.450;2022-07-22T09:56:33;97568.53;;;36.54;88.16
31239;BME280;17871;31.584;74.450;2022-07-22T09:59:03;97564.38;;;36.51;89.27
31239;BME280;17871;31.584;74.450;2022-07-22T10:01:43;97565.72;;;36.55;89.06
31239;BME280;17871;31.584;74.450;2022-07-22T10:04:14;97561.69;;;36.59;91.10
31239;BME280;17871;31.584;74.450;2022-07-22T10:06:45;97564.72;;;36.48;87.25
31239;BME280;17871;31.584;74.450;2022-07-22T10:09:21;97556.72;;;36.56;88.53
31239;BME280;17871;31.584;74.450;2022-07-22T10:11:52;97550.09;;;36.44;89.38
31239;BME280;17871;31.584;74.450;2022-07-22T10:14:24;97546.16;;;36.24;89.24
31239;BME280;17871;31.584;74.450;2022-07-22T10:16:58;97542.63;;;36.31;87.91
31239;BME280;17871;31.584;74.450;2022-07-22T10:19:35;97535.44;;;36.40;90.27
31239;BME280;17871;31.584;74.450;2022-07-22T10:25:09;97530.47;;;36.37;86.84
31239;BME280;17871;31.584;74.450;2022-07-22T10:27:54;97524.94;;;36.47;85.46
31239;BME280;17871;31.584;74.450;2022-07-22T10:30:26;97521.13;;;36.41;86.37
31239;BME280;17871;31.584;74.450;2022-07-22T10:33:13;97519.13;;;36.43;86.29
31239;BME280;17871;31.584;74.450;2022-07-22T10:36:00;97524.50;;;36.35;87.86
31239;BME280;17871;31.584;74.450;2022-07-22T10:38:30;97525.34;;;36.35;91.21
31239;BME280;17871;31.584;74.450;2022-07-22T10:41:05;97528.97;;;36.34;91.38
31239;BME280;17871;31.584;74.450;2022-07-22T10:46:11;97524.84;;;36.24;91.92
31239;BME280;17871;31.584;74.450;2022-07-22T10:51:13;97523.19;;;36.23;90.35
31239;BME280;17871;31.584;74.450;2022-07-22T10:53:53;97525.38;;;36.19;91.30
31239;BME280;17871;31.584;74.450;2022-07-22T10:59:13;97529.88;;;35.95;91.26
31239;BME280;17871;31.584;74.450;2022-07-22T11:01:48;97533.19;;;36.05;91.65
31239;BME280;17871;31.584;74.450;2022-07-22T11:04:22;97524.06;;;35.99;90.30
31239;BME280;17871;31.584;74.450;2022-07-22T11:06:55;97520.06;;;35.95;92.89
31239;BME280;17871;31.584;74.450;2022-07-22T11:09:31;97513.56;;;36.06;91.35
31239;BME280;17871;31.584;74.450;2022-07-22T11:12:01;97508.59;;;35.95;92.75
31239;BME280;17871;31.584;74.450;2022-07-22T11:14:37;97506.59;;;35.97;92.96
31239;BME280;17871;31.584;74.450;2022-07-22T11:17:09;97508.25;;;35.98;90.90
31239;BME280;17871;31.584;74.450;2022-07-22T11:19:40;97505.25;;;36.01;90.69
31239;BME280;17871;31.584;74.450;2022-07-22T11:22:11;97497.63;;;35.98;90.32
31239;BME280;17871;31.584;74.450;2022-07-22T11:24:48;97495.16;;;35.96;90.66
31239;BME280;17871;31.584;74.450;2022-07-22T11:27:19;97489.47;;;35.99;90.40
31239;BME280;17871;31.584;74.450;2022-07-22T11:29:54;97490.47;;;35.90;90.66
31239;BME280;17871;31.584;74.450;2022-07-22T11:32:26;97485.16;;;35.90;92.95
31239;BME280;17871;31.584;74.450;2022-07-22T11:35:01;97491.50;;;35.81;91.97
31239;BME280;17871;31.584;74.450;2022-07-22T11:37:30;97497.84;;;35.72;93.09
31239;BME280;17871;31.584;74.450;2022-07-22T11:40:05;97484.66;;;35.95;93.01
31239;BME280;17871;31.584;74.450;2022-07-22T11:42:35;97480.88;;;35.81;92.79
31239;BME280;17871;31.584;74.450;2022-07-22T11:45:05;97481.38;;;35.76;92.69
31239;BME280;17871;31.584;74.450;2022-07-22T11:47:34;97477.06;;;35.75;94.15
31239;BME280;17871;31.584;74.450;2022-07-22T11:50:04;97475.75;;;35.63;92.35
31239;BME280;17871;31.584;74.450;2022-07-22T11:52:34;97479.03;;;35.73;94.79
31239;BME280;17871;31.584;74.450;2022-07-22T11:55:15;97479.03;;;35.73;93.98
31239;BME280;17871;31.584;74.450;2022-07-22T11:57:48;97467.75;;;35.47;93.73
31239;BME280;17871;31.584;74.450;2022-07-22T12:00:22;97473.25;;;35.46;96.60
31239;BME280;17871;31.584;74.450;2022-07-22T12:03:09;97472.41;;;35.53;96.49
31239;BME280;17871;31.584;74.450;2022-07-22T12:05:39;97473.72;;;35.41;96.72
31239;BME280;17871;31.584;74.450;2022-07-22T12:08:09;97482.38;;;35.43;95.90
31239;BME280;17871;31.584;74.450;2022-07-22T12:10:41;97473.06;;;35.39;92.73
31239;BME280;17871;31.584;74.450;2022-07-22T12:13:11;97478.16;;;35.08;93.53
31239;BME280;17871;31.584;74.450;2022-07-22T12:15:44;97476.22;;;35.10;93.24
31239;BME280;17871;31.584;74.450;2022-07-22T12:18:17;97480.69;;;35.18;92.88
31239;BME280;17871;31.584;74.450;2022-07-22T12:20:51;97472.56;;;35.11;92.77
31239;BME280;17871;31.584;74.450;2022-07-22T12:23:22;97480.38;;;35.13;93.51
31239;BME280;17871;31.584;74.450;2022-07-22T12:25:57;97466.88;;;34.98;93.16
31239;BME280;17871;31.584;74.450;2022-07-22T12:28:27;97467.06;;;34.97;92.97
31239;BME280;17871;31.584;74.450;2022-07-22T12:30:57;97465.22;;;34.97;96.37
31239;BME280;17871;31.584;74.450;2022-07-22T12:33:26;97472.03;;;35.00;95.75
31239;BME280;17871;31.584;74.450;2022-07-22T12:36:04;97470.34;;;34.99;96.08
31239;BME280;17871;31.584;74.450;2022-07-22T12:38:34;97472.66;;;34.85;96.36
31239;BME280;17871;31.584;74.450;2022-07-22T12:41:27;97474.16;;;34.88;96.74
31239;BME280;17871;31.584;74.450;2022-07-22T12:43:58;97478.09;;;34.68;95.68
31239;BME280;17871;31.584;74.450;2022-07-22T12:46:28;97485.09;;;34.77;96.23
31239;BME280;17871;31.584;74.450;2022-07-22T12:48:58;97487.91;;;34.75;96.21
31239;BME280;17871;31.584;74.450;2022-07-22T12:51:29;97488.56;;;34.69;97.61
31239;BME280;17871;31.584;74.450;2022-07-22T12:53:59;97487.91;;;34.67;95.39
31239;BME280;17871;31.584;74.450;2022-07-22T12:56:28;97489.03;;;34.65;98.05
31239;BME280;17871;31.584;74.450;2022-07-22T12:59:03;97494.19;;;34.66;97.00
31239;BME280;17871;31.584;74.450;2022-07-22T13:01:32;97497.78;;;34.57;97.57
31239;BME280;17871;31.584;74.450;2022-07-22T13:04:02;97504.09;;;34.56;98.80
31239;BME280;17871;31.584;74.450;2022-07-22T13:06:32;97498.41;;;34.43;100.00
31239;BME280;17871;31.584;74.450;2022-07-22T13:09:02;97495.09;;;34.41;98.94
31239;BME280;17871;31.584;74.450;2022-07-22T13:11:32;97499.31;;;34.26;99.41
31239;BME280;17871;31.584;74.450;2022-07-22T13:14:01;97496.13;;;34.22;100.00
31239;BME280;17871;31.584;74.450;2022-07-22T13:16:32;97499.63;;;34.23;100.00
31239;BME280;17871;31.584;74.450;2022-07-22T13:19:02;97510.22;;;34.15;100.00
31239;BME280;17871;31.584;74.450;2022-07-22T13:21:32;97504.91;;;34.15;100.00
31239;BME280;17871;31.584;74.450;2022-07-22T13:24:01;97506.88;;;34.13;100.00
31239;BME280;17871;31.584;74.450;2022-07-22T13:26:31;97502.13;;;33.99;100.00